sensor_id;sensor_type;location;lat;lon;timestamp;temperature;humidity
13409;DHT22;6775;49.574;11.170;2023-02-28T00:01:41;-2.00;99.90
13409;DHT22;6775;49.574;11.170;2023-02-28T00:04:09;-2.00;99.90
13409;DHT22;6775;49.574;11.170;2023-02-28T00:06:36;-2.00;99.90
13409;DHT22;6775;49.574;11.170;2023-02-28T00:09:04;-2.00;99.90
13409;DHT22;6775;49.574;11.170;2023-02-28T00:11:32;-1.90;99.90
13409;DHT22;6775;49.574;11.170;2023-02-28T00:14:01;-2.00;99.90
13409;DHT22;6775;49.574;11.170;2023-02-28T00:16:29;-2.00;99.90
13409;DHT22;6775;49.574;11.170;2023-02-28T00:18:57;-1.90;99.90
13409;DHT22;6775;49.574;11.170;2023-02-28T00:21:25;-1.90;99.90
13409;DHT22;6775;49.574;11.170;2023-02-28T00:23:53;-1.90;99.90
13409;DHT22;6775;49.574;11.170;2023-02-28T00:26:21;-2.00;99.90
13409;DHT22;6775;49.574;11.170;2023-02-28T00:28:49;-2.00;99.90
13409;DHT22;6775;49.574;11.170;2023-02-28T00:31:20;-2.00;99.90
13409;DHT22;6775;49.574;11.170;2023-02-28T00:33:48;-2.00;99.90
13409;DHT22;6775;49.574;11.170;2023-02-28T00:36:17;-2.00;99.90
13409;DHT22;6775;49.574;11.170;2023-02-28T00:38:45;-2.00;99.90
13409;DHT22;6775;49.574;11.170;2023-02-28T00:41:13;-2.00;99.90
13409;DHT22;6775;49.574;11.170;2023-02-28T00:43:40;-2.00;99.90
13409;DHT22;6775;49.574;11.170;2023-02-28T00:46:09;-2.00;99.90
13409;DHT22;6775;49.574;11.170;2023-02-28T00:48:38;-2.00;99.90
13409;DHT22;6775;49.574;11.170;2023-02-28T00:51:06;-1.90;99.90
13409;DHT22;6775;49.574;11.170;2023-02-28T00:53:34;-2.00;99.90
13409;DHT22;6775;49.574;11.170;2023-02-28T00:56:02;-2.00;99.90
13409;DHT22;6775;49.574;11.170;2023-02-28T00:58:31;-1.90;99.90
13409;DHT22;6775;49.574;11.170;2023-02-28T01:00:59;-1.90;99.90
13409;DHT22;6775;49.574;11.170;2023-02-28T01:03:27;-1.90;99.90
13409;DHT22;6775;49.574;11.170;2023-02-28T01:05:56;-2.00;99.90
13409;DHT22;6775;49.574;11.170;2023-02-28T01:08:24;-2.00;99.90
13409;DHT22;6775;49.574;11.170;2023-02-28T01:10:53;-2.00;99.90
13409;DHT22;6775;49.574;11.170;2023-02-28T01:13:21;-2.00;99.90
13409;DHT22;6775;49.574;11.170;2023-02-28T01:15:51;-2.00;99.90
13409;DHT22;6775;49.574;11.170;2023-02-28T01:18:21;-2.00;99.90
13409;DHT22;6775;49.574;11.170;2023-02-28T01:20:48;-2.00;99.90
13409;DHT22;6775;49.574;11.170;2023-02-28T01:23:20;-2.10;99.90
13409;DHT22;6775;49.574;11.170;2023-02-28T01:25:49;-2.10;99.90
13409;DHT22;6775;49.574;11.170;2023-02-28T01:28:17;-2.00;99.90
13409;DHT22;6775;49.574;11.170;2023-02-28T01:30:48;-2.10;99.90
13409;DHT22;6775;49.574;11.170;2023-02-28T01:33:16;-2.00;99.90
13409;DHT22;6775;49.574;11.170;2023-02-28T01:35:43;-2.00;99.90
13409;DHT22;6775;49.574;11.170;2023-02-28T01:38:11;-2.00;99.90
13409;DHT22;6775;49.574;11.170;2023-02-28T01:40:50;-2.00;99.90
13409;DHT22;6775;49.574;11.170;2023-02-28T01:43:21;-2.00;99.90
13409;DHT22;6775;49.574;11.170;2023-02-28T01:45:50;-1.90;99.90
13409;DHT22;6775;49.574;11.170;2023-02-28T01:48:18;-1.80;99.90
13409;DHT22;6775;49.574;11.170;2023-02-28T01:50:48;-1.80;99.90
13409;DHT22;6775;49.574;11.170;2023-02-28T01:53:18;-1.70;99.90
13409;DHT22;6775;49.574;11.170;2023-02-28T01:55:49;-1.70;99.90
13409;DHT22;6775;49.574;11.170;2023-02-28T01:58:20;-1.70;99.90
13409;DHT22;6775;49.574;11.170;2023-02-28T02:00:48;-1.70;99.90
13409;DHT22;6775;49.574;11.170;2023-02-28T02:03:18;-1.60;99.90
13409;DHT22;6775;49.574;11.170;2023-02-28T02:05:47;-1.50;99.90
13409;DHT22;6775;49.574;11.170;2023-02-28T02:08:17;-1.50;99.90
13409;DHT22;6775;49.574;11.170;2023-02-28T02:10:50;-1.50;99.90
13409;DHT22;6775;49.574;11.170;2023-02-28T02:16:34;-1.60;99.90
13409;DHT22;6775;49.574;11.170;2023-02-28T02:19:22;-1.70;99.90
13409;DHT22;6775;49.574;11.170;2023-02-28T02:22:12;-1.70;99.90
13409;DHT22;6775;49.574;11.170;2023-02-28T02:25:08;-1.80;99.90
13409;DHT22;6775;49.574;11.170;2023-02-28T02:27:48;-1.80;99.90
13409;DHT22;6775;49.574;11.170;2023-02-28T02:30:40;-1.90;99.90
13409;DHT22;6775;49.574;11.170;2023-02-28T02:33:26;-2.00;99.90
13409;DHT22;6775;49.574;11.170;2023-02-28T02:36:02;-2.00;99.90
13409;DHT22;6775;49.574;11.170;2023-02-28T02:38:33;-2.10;99.90
13409;DHT22;6775;49.574;11.170;2023-02-28T02:41:08;-2.10;99.90
13409;DHT22;6775;49.574;11.170;2023-02-28T02:43:46;-2.10;99.90
13409;DHT22;6775;49.574;11.170;2023-02-28T02:46:19;-2.10;99.90
13409;DHT22;6775;49.574;11.170;2023-02-28T02:48:50;-2.10;99.90
13409;DHT22;6775;49.574;11.170;2023-02-28T02:51:23;-2.10;99.90
13409;DHT22;6775;49.574;11.170;2023-02-28T02:53:56;-2.10;99.90
13409;DHT22;6775;49.574;11.170;2023-02-28T02:56:28;-2.10;99.90
13409;DHT22;6775;49.574;11.170;2023-02-28T02:59:01;-2.10;99.90
13409;DHT22;6775;49.574;11.170;2023-02-28T03:01:30;-2.10;99.90
13409;DHT22;6775;49.574;11.170;2023-02-28T03:04:01;-2.10;99.90
13409;DHT22;6775;49.574;11.170;2023-02-28T03:06:31;-2.10;99.90
13409;DHT22;6775;49.574;11.170;2023-02-28T03:09:00;-2.10;99.90
13409;DHT22;6775;49.574;11.170;2023-02-28T03:11:29;-2.10;99.90
13409;DHT22;6775;49.574;11.170;2023-02-28T03:14:22;-2.00;99.90
13409;DHT22;6775;49.574;11.170;2023-02-28T03:17:20;-2.00;99.90
13409;DHT22;6775;49.574;11.170;2023-02-28T03:20:01;-2.00;99.90
13409;DHT22;6775;49.574;11.170;2023-02-28T03:22:54;-2.10;99.90
13409;DHT22;6775;49.574;11.170;2023-02-28T03:25:31;-2.10;99.90
13409;DHT22;6775;49.574;11.170;2023-02-28T03:28:04;-2.20;99.90
13409;DHT22;6775;49.574;11.170;2023-02-28T03:30:38;-2.20;99.90
13409;DHT22;6775;49.574;11.170;2023-02-28T03:33:12;-2.20;99.90
13409;DHT22;6775;49.574;11.170;2023-02-28T03:35:45;-2.20;99.90
13409;DHT22;6775;49.574;11.170;2023-02-28T03:38:21;-2.20;99.90
13409;DHT22;6775;49.574;11.170;2023-02-28T03:40:52;-2.10;99.90
13409;DHT22;6775;49.574;11.170;2023-02-28T03:43:24;-2.10;99.90
13409;DHT22;6775;49.574;11.170;2023-02-28T03:45:55;-2.00;99.90
13409;DHT22;6775;49.574;11.170;2023-02-28T03:48:27;-1.90;99.90
13409;DHT22;6775;49.574;11.170;2023-02-28T03:50:59;-1.90;99.90
13409;DHT22;6775;49.574;11.170;2023-02-28T03:53:32;-1.90;99.90
13409;DHT22;6775;49.574;11.170;2023-02-28T03:56:04;-1.90;99.90
13409;DHT22;6775;49.574;11.170;2023-02-28T03:58:38;-1.90;99.90
13409;DHT22;6775;49.574;11.170;2023-02-28T04:01:12;-1.90;99.90
13409;DHT22;6775;49.574;11.170;2023-02-28T04:03:40;-1.90;99.90
13409;DHT22;6775;49.574;11.170;2023-02-28T04:06:14;-2.00;99.90
13409;DHT22;6775;49.574;11.170;2023-02-28T04:08:44;-2.00;99.90
13409;DHT22;6775;49.574;11.170;2023-02-28T04:11:18;-2.10;99.90
13409;DHT22;6775;49.574;11.170;2023-02-28T04:13:46;-2.10;99.90
13409;DHT22;6775;49.574;11.170;2023-02-28T04:16:14;-2.10;99.90
13409;DHT22;6775;49.574;11.170;2023-02-28T04:18:59;-2.10;99.90
13409;DHT22;6775;49.574;11.170;2023-02-28T04:21:29;-2.10;99.90
13409;DHT22;6775;49.574;11.170;2023-02-28T04:24:00;-2.10;99.90
13409;DHT22;6775;49.574;11.170;2023-02-28T04:26:29;-2.10;99.90
13409;DHT22;6775;49.574;11.170;2023-02-28T04:28:58;-2.10;99.90
13409;DHT22;6775;49.574;11.170;2023-02-28T04:31:26;-2.10;99.90
13409;DHT22;6775;49.574;11.170;2023-02-28T04:33:54;-2.10;99.90
13409;DHT22;6775;49.574;11.170;2023-02-28T04:36:22;-2.10;99.90
13409;DHT22;6775;49.574;11.170;2023-02-28T04:38:50;-2.10;99.90
13409;DHT22;6775;49.574;11.170;2023-02-28T04:41:21;-2.10;99.90
13409;DHT22;6775;49.574;11.170;2023-02-28T04:43:50;-2.10;99.90
13409;DHT22;6775;49.574;11.170;2023-02-28T04:46:19;-2.10;99.90
13409;DHT22;6775;49.574;11.170;2023-02-28T04:48:47;-2.10;99.90
13409;DHT22;6775;49.574;11.170;2023-02-28T04:51:17;-2.10;99.90
13409;DHT22;6775;49.574;11.170;2023-02-28T04:53:47;-2.10;99.90
13409;DHT22;6775;49.574;11.170;2023-02-28T04:56:16;-2.10;99.90
13409;DHT22;6775;49.574;11.170;2023-02-28T04:58:46;-2.10;99.90
13409;DHT22;6775;49.574;11.170;2023-02-28T05:01:20;-2.10;99.90
13409;DHT22;6775;49.574;11.170;2023-02-28T05:03:49;-2.10;99.90
13409;DHT22;6775;49.574;11.170;2023-02-28T05:06:18;-2.10;99.90
13409;DHT22;6775;49.574;11.170;2023-02-28T05:08:47;-2.10;99.90
13409;DHT22;6775;49.574;11.170;2023-02-28T05:11:17;-2.10;99.90
13409;DHT22;6775;49.574;11.170;2023-02-28T05:13:47;-2.10;99.90
13409;DHT22;6775;49.574;11.170;2023-02-28T05:16:16;-2.10;99.90
13409;DHT22;6775;49.574;11.170;2023-02-28T05:18:44;-2.10;99.90
13409;DHT22;6775;49.574;11.170;2023-02-28T05:21:26;-2.10;99.90
13409;DHT22;6775;49.574;11.170;2023-02-28T05:23:55;-2.10;99.90
13409;DHT22;6775;49.574;11.170;2023-02-28T05:26:24;-2.10;99.90
13409;DHT22;6775;49.574;11.170;2023-02-28T05:28:53;-2.10;99.90
13409;DHT22;6775;49.574;11.170;2023-02-28T05:31:21;-2.10;99.90
13409;DHT22;6775;49.574;11.170;2023-02-28T05:33:49;-2.10;99.90
13409;DHT22;6775;49.574;11.170;2023-02-28T05:36:17;-2.10;99.90
13409;DHT22;6775;49.574;11.170;2023-02-28T05:38:47;-2.10;99.90
13409;DHT22;6775;49.574;11.170;2023-02-28T05:41:16;-2.10;99.90
13409;DHT22;6775;49.574;11.170;2023-02-28T05:43:46;-2.10;99.90
13409;DHT22;6775;49.574;11.170;2023-02-28T05:46:16;-2.10;99.90
13409;DHT22;6775;49.574;11.170;2023-02-28T05:48:46;-2.10;99.90
13409;DHT22;6775;49.574;11.170;2023-02-28T05:51:15;-2.10;99.90
13409;DHT22;6775;49.574;11.170;2023-02-28T05:53:43;-2.20;99.90
13409;DHT22;6775;49.574;11.170;2023-02-28T05:56:11;-2.20;99.90
13409;DHT22;6775;49.574;11.170;2023-02-28T05:58:39;-2.20;99.90
13409;DHT22;6775;49.574;11.170;2023-02-28T06:01:23;-2.20;99.90
13409;DHT22;6775;49.574;11.170;2023-02-28T06:03:53;-2.20;99.90
13409;DHT22;6775;49.574;11.170;2023-02-28T06:06:21;-2.20;99.90
13409;DHT22;6775;49.574;11.170;2023-02-28T06:08:49;-2.10;99.90
13409;DHT22;6775;49.574;11.170;2023-02-28T06:11:16;-2.20;99.90
13409;DHT22;6775;49.574;11.170;2023-02-28T06:13:46;-2.10;99.90
13409;DHT22;6775;49.574;11.170;2023-02-28T06:16:14;-2.10;99.90
13409;DHT22;6775;49.574;11.170;2023-02-28T06:18:43;-2.10;99.90
13409;DHT22;6775;49.574;11.170;2023-02-28T06:21:12;-2.00;99.90
13409;DHT22;6775;49.574;11.170;2023-02-28T06:23:40;-2.00;99.90
13409;DHT22;6775;49.574;11.170;2023-02-28T06:26:07;-2.00;99.90
13409;DHT22;6775;49.574;11.170;2023-02-28T06:28:35;-1.90;99.90
13409;DHT22;6775;49.574;11.170;2023-02-28T06:31:07;-1.90;99.90
13409;DHT22;6775;49.574;11.170;2023-02-28T06:33:35;-1.90;99.90
13409;DHT22;6775;49.574;11.170;2023-02-28T06:36:06;-1.80;99.90
13409;DHT22;6775;49.574;11.170;2023-02-28T06:38:34;-1.70;99.90
13409;DHT22;6775;49.574;11.170;2023-02-28T06:41:03;-1.70;99.90
13409;DHT22;6775;49.574;11.170;2023-02-28T06:43:34;-1.60;99.90
13409;DHT22;6775;49.574;11.170;2023-02-28T06:46:04;-1.50;99.90
13409;DHT22;6775;49.574;11.170;2023-02-28T06:48:33;-1.40;99.90
13409;DHT22;6775;49.574;11.170;2023-02-28T06:51:05;-1.30;99.90
13409;DHT22;6775;49.574;11.170;2023-02-28T06:53:33;-1.20;99.90
13409;DHT22;6775;49.574;11.170;2023-02-28T06:56:04;-1.20;99.90
13409;DHT22;6775;49.574;11.170;2023-02-28T06:58:33;-1.10;99.90
13409;DHT22;6775;49.574;11.170;2023-02-28T07:01:02;-1.00;99.90
13409;DHT22;6775;49.574;11.170;2023-02-28T07:03:30;-0.90;99.90
13409;DHT22;6775;49.574;11.170;2023-02-28T07:06:00;-0.90;99.90
13409;DHT22;6775;49.574;11.170;2023-02-28T07:08:29;-0.80;99.90
13409;DHT22;6775;49.574;11.170;2023-02-28T07:10:58;-0.70;99.90
13409;DHT22;6775;49.574;11.170;2023-02-28T07:13:26;-0.60;99.90
13409;DHT22;6775;49.574;11.170;2023-02-28T07:15:55;-0.50;99.90
13409;DHT22;6775;49.574;11.170;2023-02-28T07:18:23;-0.40;99.90
13409;DHT22;6775;49.574;11.170;2023-02-28T07:20:52;-0.30;99.90
13409;DHT22;6775;49.574;11.170;2023-02-28T07:23:20;-0.10;99.90
13409;DHT22;6775;49.574;11.170;2023-02-28T07:25:50;0.00;99.90
13409;DHT22;6775;49.574;11.170;2023-02-28T07:28:18;0.20;99.90
13409;DHT22;6775;49.574;11.170;2023-02-28T07:30:46;0.30;99.90
13409;DHT22;6775;49.574;11.170;2023-02-28T07:33:14;0.60;99.90
13409;DHT22;6775;49.574;11.170;2023-02-28T07:35:42;0.70;99.90
13409;DHT22;6775;49.574;11.170;2023-02-28T07:38:10;0.90;99.90
13409;DHT22;6775;49.574;11.170;2023-02-28T07:40:40;1.10;99.90
13409;DHT22;6775;49.574;11.170;2023-02-28T07:43:09;1.30;99.90
13409;DHT22;6775;49.574;11.170;2023-02-28T07:45:37;0.90;99.90
13409;DHT22;6775;49.574;11.170;2023-02-28T07:48:04;1.50;99.90
13409;DHT22;6775;49.574;11.170;2023-02-28T07:50:32;1.60;99.90
13409;DHT22;6775;49.574;11.170;2023-02-28T07:53:01;1.70;99.90
13409;DHT22;6775;49.574;11.170;2023-02-28T07:55:29;1.70;99.90
13409;DHT22;6775;49.574;11.170;2023-02-28T07:57:57;1.70;99.90
13409;DHT22;6775;49.574;11.170;2023-02-28T08:00:26;1.70;99.90
13409;DHT22;6775;49.574;11.170;2023-02-28T08:02:55;1.60;99.90
13409;DHT22;6775;49.574;11.170;2023-02-28T08:05:23;1.70;99.90
13409;DHT22;6775;49.574;11.170;2023-02-28T08:07:51;1.80;99.90
13409;DHT22;6775;49.574;11.170;2023-02-28T08:10:19;2.00;99.90
13409;DHT22;6775;49.574;11.170;2023-02-28T08:12:47;2.10;99.90
13409;DHT22;6775;49.574;11.170;2023-02-28T08:15:15;2.20;99.90
13409;DHT22;6775;49.574;11.170;2023-02-28T08:17:44;2.30;99.90
13409;DHT22;6775;49.574;11.170;2023-02-28T08:20:12;2.30;99.90
13409;DHT22;6775;49.574;11.170;2023-02-28T08:22:40;2.40;99.90
13409;DHT22;6775;49.574;11.170;2023-02-28T08:25:11;2.50;99.90
13409;DHT22;6775;49.574;11.170;2023-02-28T08:27:39;2.70;99.90
13409;DHT22;6775;49.574;11.170;2023-02-28T08:30:09;2.90;99.90
13409;DHT22;6775;49.574;11.170;2023-02-28T08:32:38;3.20;99.90
13409;DHT22;6775;49.574;11.170;2023-02-28T08:35:08;3.50;99.90
13409;DHT22;6775;49.574;11.170;2023-02-28T08:37:37;3.80;99.90
13409;DHT22;6775;49.574;11.170;2023-02-28T08:40:06;3.80;99.90
13409;DHT22;6775;49.574;11.170;2023-02-28T08:42:34;3.90;99.90
13409;DHT22;6775;49.574;11.170;2023-02-28T08:45:02;4.10;99.90
13409;DHT22;6775;49.574;11.170;2023-02-28T08:47:30;4.40;99.90
13409;DHT22;6775;49.574;11.170;2023-02-28T08:49:58;4.80;99.40
13409;DHT22;6775;49.574;11.170;2023-02-28T08:52:27;5.90;96.20
13409;DHT22;6775;49.574;11.170;2023-02-28T08:54:54;7.40;93.10
13409;DHT22;6775;49.574;11.170;2023-02-28T08:57:25;8.80;88.20
13409;DHT22;6775;49.574;11.170;2023-02-28T08:59:53;10.30;75.60
13409;DHT22;6775;49.574;11.170;2023-02-28T09:02:21;10.70;68.10
13409;DHT22;6775;49.574;11.170;2023-02-28T09:04:49;9.90;69.60
13409;DHT22;6775;49.574;11.170;2023-02-28T09:07:17;9.70;72.20
13409;DHT22;6775;49.574;11.170;2023-02-28T09:09:46;10.80;67.10
13409;DHT22;6775;49.574;11.170;2023-02-28T09:12:21;11.70;63.40
13409;DHT22;6775;49.574;11.170;2023-02-28T09:14:49;12.70;60.30
13409;DHT22;6775;49.574;11.170;2023-02-28T09:17:18;13.70;56.90
13409;DHT22;6775;49.574;11.170;2023-02-28T09:19:47;13.10;54.20
13409;DHT22;6775;49.574;11.170;2023-02-28T09:22:15;12.00;55.90
13409;DHT22;6775;49.574;11.170;2023-02-28T09:24:43;10.30;57.70
13409;DHT22;6775;49.574;11.170;2023-02-28T09:27:12;8.60;63.40
13409;DHT22;6775;49.574;11.170;2023-02-28T09:29:40;7.30;67.50
13409;DHT22;6775;49.574;11.170;2023-02-28T09:32:08;6.30;69.90
13409;DHT22;6775;49.574;11.170;2023-02-28T09:34:36;5.50;73.00
13409;DHT22;6775;49.574;11.170;2023-02-28T09:37:04;5.10;75.70
13409;DHT22;6775;49.574;11.170;2023-02-28T09:39:32;4.70;75.60
13409;DHT22;6775;49.574;11.170;2023-02-28T09:42:02;5.50;77.10
13409;DHT22;6775;49.574;11.170;2023-02-28T09:44:36;6.70;72.80
13409;DHT22;6775;49.574;11.170;2023-02-28T09:47:11;7.00;71.20
13409;DHT22;6775;49.574;11.170;2023-02-28T09:49:43;6.80;70.50
13409;DHT22;6775;49.574;11.170;2023-02-28T09:52:16;6.00;71.00
13409;DHT22;6775;49.574;11.170;2023-02-28T09:54:45;5.20;73.40
13409;DHT22;6775;49.574;11.170;2023-02-28T09:57:19;4.70;75.80
13409;DHT22;6775;49.574;11.170;2023-02-28T10:00:10;4.70;77.20
13409;DHT22;6775;49.574;11.170;2023-02-28T10:02:52;4.60;77.10
13409;DHT22;6775;49.574;11.170;2023-02-28T10:05:27;5.60;77.90
13409;DHT22;6775;49.574;11.170;2023-02-28T10:08:02;8.80;69.50
13409;DHT22;6775;49.574;11.170;2023-02-28T10:10:37;9.90;61.50
13409;DHT22;6775;49.574;11.170;2023-02-28T10:13:14;10.20;59.80
13409;DHT22;6775;49.574;11.170;2023-02-28T10:15:47;13.00;56.60
13409;DHT22;6775;49.574;11.170;2023-02-28T10:18:23;15.80;49.70
13409;DHT22;6775;49.574;11.170;2023-02-28T10:20:53;17.40;44.50
13409;DHT22;6775;49.574;11.170;2023-02-28T10:23:25;17.70;41.40
13409;DHT22;6775;49.574;11.170;2023-02-28T10:25:57;18.90;40.90
13409;DHT22;6775;49.574;11.170;2023-02-28T10:28:25;20.20;38.40
13409;DHT22;6775;49.574;11.170;2023-02-28T10:30:56;21.50;36.00
13409;DHT22;6775;49.574;11.170;2023-02-28T10:33:28;22.30;34.00
13409;DHT22;6775;49.574;11.170;2023-02-28T10:35:57;22.50;33.00
13409;DHT22;6775;49.574;11.170;2023-02-28T10:38:27;22.90;32.00
13409;DHT22;6775;49.574;11.170;2023-02-28T10:41:04;23.60;31.20
13409;DHT22;6775;49.574;11.170;2023-02-28T10:43:32;24.10;30.00
13409;DHT22;6775;49.574;11.170;2023-02-28T10:46:05;24.70;29.00
13409;DHT22;6775;49.574;11.170;2023-02-28T10:48:40;25.40;29.00
13409;DHT22;6775;49.574;11.170;2023-02-28T10:51:11;25.80;27.70
13409;DHT22;6775;49.574;11.170;2023-02-28T10:53:47;25.20;27.60
13409;DHT22;6775;49.574;11.170;2023-02-28T10:56:27;25.30;28.10
13409;DHT22;6775;49.574;11.170;2023-02-28T10:58:58;25.60;27.90
13409;DHT22;6775;49.574;11.170;2023-02-28T11:01:37;25.40;27.10
13409;DHT22;6775;49.574;11.170;2023-02-28T11:04:17;25.00;27.40
13409;DHT22;6775;49.574;11.170;2023-02-28T11:06:46;24.30;27.70
13409;DHT22;6775;49.574;11.170;2023-02-28T11:09:19;24.40;28.10
13409;DHT22;6775;49.574;11.170;2023-02-28T11:11:49;24.40;27.90
13409;DHT22;6775;49.574;11.170;2023-02-28T11:14:21;24.60;27.60
13409;DHT22;6775;49.574;11.170;2023-02-28T11:16:51;24.50;27.10
13409;DHT22;6775;49.574;11.170;2023-02-28T11:19:22;24.20;28.00
13409;DHT22;6775;49.574;11.170;2023-02-28T11:21:54;24.20;27.80
13409;DHT22;6775;49.574;11.170;2023-02-28T11:24:25;24.70;27.70
13409;DHT22;6775;49.574;11.170;2023-02-28T11:26:55;24.80;27.60
13409;DHT22;6775;49.574;11.170;2023-02-28T11:29:25;24.60;27.20
13409;DHT22;6775;49.574;11.170;2023-02-28T11:32:09;23.30;27.40
13409;DHT22;6775;49.574;11.170;2023-02-28T11:34:40;22.30;27.70
13409;DHT22;6775;49.574;11.170;2023-02-28T11:37:12;22.60;28.80
13409;DHT22;6775;49.574;11.170;2023-02-28T11:39:41;22.50;28.50
13409;DHT22;6775;49.574;11.170;2023-02-28T11:42:26;21.40;28.90
13409;DHT22;6775;49.574;11.170;2023-02-28T11:45:11;20.70;29.00
13409;DHT22;6775;49.574;11.170;2023-02-28T11:47:47;20.40;30.00
13409;DHT22;6775;49.574;11.170;2023-02-28T11:50:26;20.80;29.60
13409;DHT22;6775;49.574;11.170;2023-02-28T11:53:02;21.30;29.60
13409;DHT22;6775;49.574;11.170;2023-02-28T11:55:35;21.90;29.20
13409;DHT22;6775;49.574;11.170;2023-02-28T11:58:37;22.00;29.40
13409;DHT22;6775;49.574;11.170;2023-02-28T12:01:21;21.20;29.40
13409;DHT22;6775;49.574;11.170;2023-02-28T12:04:00;20.70;29.80
13409;DHT22;6775;49.574;11.170;2023-02-28T12:06:33;19.90;30.70
13409;DHT22;6775;49.574;11.170;2023-02-28T12:09:20;20.00;30.70
13409;DHT22;6775;49.574;11.170;2023-02-28T12:11:52;19.90;31.00
13409;DHT22;6775;49.574;11.170;2023-02-28T12:17:33;19.80;30.70
13409;DHT22;6775;49.574;11.170;2023-02-28T12:20:11;19.40;30.90
13409;DHT22;6775;49.574;11.170;2023-02-28T12:22:48;18.60;31.80
13409;DHT22;6775;49.574;11.170;2023-02-28T12:25:41;18.20;32.90
13409;DHT22;6775;49.574;11.170;2023-02-28T12:28:15;18.50;32.90
13409;DHT22;6775;49.574;11.170;2023-02-28T12:30:50;18.20;32.50
13409;DHT22;6775;49.574;11.170;2023-02-28T12:33:23;17.70;33.20
13409;DHT22;6775;49.574;11.170;2023-02-28T12:35:58;17.90;33.40
13409;DHT22;6775;49.574;11.170;2023-02-28T12:38:28;18.00;32.30
13409;DHT22;6775;49.574;11.170;2023-02-28T12:41:00;17.80;33.10
13409;DHT22;6775;49.574;11.170;2023-02-28T12:43:32;18.40;32.80
13409;DHT22;6775;49.574;11.170;2023-02-28T12:46:03;17.90;32.60
13409;DHT22;6775;49.574;11.170;2023-02-28T12:48:40;17.10;33.80
13409;DHT22;6775;49.574;11.170;2023-02-28T12:51:12;16.50;34.20
13409;DHT22;6775;49.574;11.170;2023-02-28T12:53:52;16.80;34.90
13409;DHT22;6775;49.574;11.170;2023-02-28T12:56:30;17.20;34.60
13409;DHT22;6775;49.574;11.170;2023-02-28T12:59:05;17.70;33.90
13409;DHT22;6775;49.574;11.170;2023-02-28T13:01:57;18.20;33.50
13409;DHT22;6775;49.574;11.170;2023-02-28T13:04:56;18.80;33.80
13409;DHT22;6775;49.574;11.170;2023-02-28T13:07:52;18.20;33.10
13409;DHT22;6775;49.574;11.170;2023-02-28T13:10:23;17.40;33.70
13409;DHT22;6775;49.574;11.170;2023-02-28T13:12:53;16.70;34.40
13409;DHT22;6775;49.574;11.170;2023-02-28T13:15:24;16.20;35.30
13409;DHT22;6775;49.574;11.170;2023-02-28T13:17:56;16.20;36.00
13409;DHT22;6775;49.574;11.170;2023-02-28T13:20:27;16.30;36.00
13409;DHT22;6775;49.574;11.170;2023-02-28T13:22:57;16.50;35.70
13409;DHT22;6775;49.574;11.170;2023-02-28T13:25:52;16.20;35.50
13409;DHT22;6775;49.574;11.170;2023-02-28T13:34:40;14.60;39.50
13409;DHT22;6775;49.574;11.170;2023-02-28T13:37:35;14.70;38.60
13409;DHT22;6775;49.574;11.170;2023-02-28T13:40:28;15.00;38.20
13409;DHT22;6775;49.574;11.170;2023-02-28T13:42:56;15.90;38.10
13409;DHT22;6775;49.574;11.170;2023-02-28T13:45:26;16.00;36.70
13409;DHT22;6775;49.574;11.170;2023-02-28T13:47:58;16.00;37.10
13409;DHT22;6775;49.574;11.170;2023-02-28T13:50:31;15.70;37.10
13409;DHT22;6775;49.574;11.170;2023-02-28T13:53:26;15.50;38.00
13409;DHT22;6775;49.574;11.170;2023-02-28T13:56:03;15.50;37.60
13409;DHT22;6775;49.574;11.170;2023-02-28T13:58:51;15.20;37.10
13409;DHT22;6775;49.574;11.170;2023-02-28T14:01:38;14.80;37.40
13409;DHT22;6775;49.574;11.170;2023-02-28T14:07:17;13.80;39.40
13409;DHT22;6775;49.574;11.170;2023-02-28T14:09:48;13.80;39.80
13409;DHT22;6775;49.574;11.170;2023-02-28T14:12:59;13.70;39.70
13409;DHT22;6775;49.574;11.170;2023-02-28T14:18:33;12.40;41.20
13409;DHT22;6775;49.574;11.170;2023-02-28T14:21:09;11.40;43.00
13409;DHT22;6775;49.574;11.170;2023-02-28T14:27:03;9.70;47.90
13409;DHT22;6775;49.574;11.170;2023-02-28T14:29:51;8.80;49.20
13409;DHT22;6775;49.574;11.170;2023-02-28T14:32:27;8.20;50.60
13409;DHT22;6775;49.574;11.170;2023-02-28T14:35:04;7.70;52.50
13409;DHT22;6775;49.574;11.170;2023-02-28T14:37:39;7.30;53.40
13409;DHT22;6775;49.574;11.170;2023-02-28T14:40:14;6.90;54.60
13409;DHT22;6775;49.574;11.170;2023-02-28T14:42:48;6.70;55.90
13409;DHT22;6775;49.574;11.170;2023-02-28T14:45:23;6.50;55.90
13409;DHT22;6775;49.574;11.170;2023-02-28T14:47:52;6.30;56.90
13409;DHT22;6775;49.574;11.170;2023-02-28T14:50:22;6.30;57.40
13409;DHT22;6775;49.574;11.170;2023-02-28T14:52:52;6.20;57.40
13409;DHT22;6775;49.574;11.170;2023-02-28T14:55:24;6.10;57.10
13409;DHT22;6775;49.574;11.170;2023-02-28T14:57:55;6.00;58.10
13409;DHT22;6775;49.574;11.170;2023-02-28T15:00:26;5.90;58.20
13409;DHT22;6775;49.574;11.170;2023-02-28T15:02:56;5.90;58.90
13409;DHT22;6775;49.574;11.170;2023-02-28T15:05:27;5.90;58.70
13409;DHT22;6775;49.574;11.170;2023-02-28T15:08:05;5.90;58.40
13409;DHT22;6775;49.574;11.170;2023-02-28T15:10:33;5.90;58.80
13409;DHT22;6775;49.574;11.170;2023-02-28T15:13:04;5.80;59.60
13409;DHT22;6775;49.574;11.170;2023-02-28T15:15:44;5.70;59.80
13409;DHT22;6775;49.574;11.170;2023-02-28T15:18:38;5.70;60.20
13409;DHT22;6775;49.574;11.170;2023-02-28T15:21:11;5.60;60.00
13409;DHT22;6775;49.574;11.170;2023-02-28T15:23:40;5.40;60.50
13409;DHT22;6775;49.574;11.170;2023-02-28T15:26:12;5.40;61.90
13409;DHT22;6775;49.574;11.170;2023-02-28T15:28:41;5.30;61.80
13409;DHT22;6775;49.574;11.170;2023-02-28T15:31:21;5.20;61.70
13409;DHT22;6775;49.574;11.170;2023-02-28T15:33:54;5.10;63.20
13409;DHT22;6775;49.574;11.170;2023-02-28T15:36:25;5.00;62.90
13409;DHT22;6775;49.574;11.170;2023-02-28T15:38:55;5.00;63.80
13409;DHT22;6775;49.574;11.170;2023-02-28T15:41:36;5.00;64.50
13409;DHT22;6775;49.574;11.170;2023-02-28T15:44:16;5.00;65.00
13409;DHT22;6775;49.574;11.170;2023-02-28T15:46:56;5.00;65.10
13409;DHT22;6775;49.574;11.170;2023-02-28T15:49:25;4.90;64.60
13409;DHT22;6775;49.574;11.170;2023-02-28T15:51:55;4.80;64.90
13409;DHT22;6775;49.574;11.170;2023-02-28T15:54:27;4.80;65.10
13409;DHT22;6775;49.574;11.170;2023-02-28T15:56:57;4.70;65.30
13409;DHT22;6775;49.574;11.170;2023-02-28T15:59:28;4.60;65.50
13409;DHT22;6775;49.574;11.170;2023-02-28T16:02:14;4.60;66.00
13409;DHT22;6775;49.574;11.170;2023-02-28T16:05:21;4.50;66.50
13409;DHT22;6775;49.574;11.170;2023-02-28T16:07:55;4.40;66.30
13409;DHT22;6775;49.574;11.170;2023-02-28T16:10:24;4.30;66.90
13409;DHT22;6775;49.574;11.170;2023-02-28T16:12:54;4.30;68.10
13409;DHT22;6775;49.574;11.170;2023-02-28T16:15:24;4.20;69.10
13409;DHT22;6775;49.574;11.170;2023-02-28T16:17:55;4.10;70.10
13409;DHT22;6775;49.574;11.170;2023-02-28T16:20:26;4.00;71.10
13409;DHT22;6775;49.574;11.170;2023-02-28T16:22:54;3.90;71.10
13409;DHT22;6775;49.574;11.170;2023-02-28T16:25:26;3.80;71.70
13409;DHT22;6775;49.574;11.170;2023-02-28T16:27:55;3.80;72.70
13409;DHT22;6775;49.574;11.170;2023-02-28T16:30:25;3.70;74.30